Hauptseite
METAR-TAF:

METAR-TAF

Flughäfen :

Flughafen Lusaka

Lusaka, Sambia

Breite: 15-19-51S, Länge: 028-27-09E, Höhe: 1152 m

Beobachtung

Neuester Wetterbericht von vor 43 Minuten, um 04:00 UTC
Wind 5 kt aus West/Nordwest
Temperatur 19°C
Luftfeuchtigkeit 94%
Luftdruck 1020 hPa
Sichtweite 10 km oder mehr
Leicht bewölkt in der Höhe von 2000 ft
Durchbrochene Bewölkung in der Höhe von 9000 ft

METAR: FLKK 160400Z 30005KT 9999 FEW020 BKN090 19/18 Q1020

Zeit: 06:43 (04:43 UTC)


TAF: fehlend

Wetterbeobachtungen und Prognosen von mehr als 4000 Flughäfen (METAR und TAF Bericht).

Die verfügbaren Stationen werden durch gelbe und rote Markierungen auf der Karte dargestellt.

Führen Sie die Maus auf sie, um den Namen der Station zu sehen.

Darauf klicken, um die Beobachtung von Wetterbeobachtungen und Prognosen zu sehen.

Um die Karte zu ändern : klicken Sie auf den grünen Tasten mit einem schwarzen Kreuz Zum Vergrößern, auf den grünen Button mit einem Gedankenstrich zu verkleinern, oder auf die grünen Pfeile für benachbarte Karten.


METAR-TAF: